sensor_id;sensor_type;location;lat;lon;timestamp;pressure;altitude;pressure_sealevel;temperature;humidity
44138;BME280;29800;55.942;37.314;2023-05-10T00:02:03;100500.41;;;7.17;54.39
44138;BME280;29800;55.942;37.314;2023-05-10T00:04:30;100486.81;;;7.17;54.48
44138;BME280;29800;55.942;37.314;2023-05-10T00:06:56;100488.69;;;7.17;55.17
44138;BME280;29800;55.942;37.314;2023-05-10T00:09:22;100487.84;;;7.16;55.60
44138;BME280;29800;55.942;37.314;2023-05-10T00:11:49;100488.69;;;7.17;54.64
44138;BME280;29800;55.942;37.314;2023-05-10T00:14:15;100491.22;;;7.18;53.36
44138;BME280;29800;55.942;37.314;2023-05-10T00:16:41;100487.41;;;7.26;51.34
44138;BME280;29800;55.942;37.314;2023-05-10T00:19:07;100486.59;;;7.32;50.00
44138;BME280;29800;55.942;37.314;2023-05-10T00:21:34;100482.00;;;7.33;51.34
44138;BME280;29800;55.942;37.314;2023-05-10T00:24:00;100492.88;;;7.33;52.48
44138;BME280;29800;55.942;37.314;2023-05-10T00:26:26;100483.03;;;7.32;52.19
44138;BME280;29800;55.942;37.314;2023-05-10T00:28:55;100487.44;;;7.33;53.21
44138;BME280;29800;55.942;37.314;2023-05-10T00:31:21;100486.19;;;7.29;54.29
44138;BME280;29800;55.942;37.314;2023-05-10T00:33:48;100482.22;;;7.25;54.38
44138;BME280;29800;55.942;37.314;2023-05-10T00:36:14;100488.28;;;7.20;54.95
44138;BME280;29800;55.942;37.314;2023-05-10T00:38:40;100494.16;;;7.17;55.11
44138;BME280;29800;55.942;37.314;2023-05-10T00:41:07;100489.31;;;7.12;55.15
44138;BME280;29800;55.942;37.314;2023-05-10T00:43:35;100487.22;;;7.08;55.40
44138;BME280;29800;55.942;37.314;2023-05-10T00:46:04;100494.97;;;7.04;56.42
44138;BME280;29800;55.942;37.314;2023-05-10T00:48:30;100487.22;;;7.01;56.30
44138;BME280;29800;55.942;37.314;2023-05-10T00:50:57;100484.91;;;6.98;56.40
44138;BME280;29800;55.942;37.314;2023-05-10T00:53:24;100484.91;;;6.98;56.33
44138;BME280;29800;55.942;37.314;2023-05-10T00:55:51;100493.28;;;6.96;56.56
44138;BME280;29800;55.942;37.314;2023-05-10T00:58:17;100485.97;;;6.97;56.94
44138;BME280;29800;55.942;37.314;2023-05-10T01:00:45;100485.78;;;6.98;57.33
44138;BME280;29800;55.942;37.314;2023-05-10T01:03:12;100494.56;;;7.01;55.78
44138;BME280;29800;55.942;37.314;2023-05-10T01:05:38;100482.81;;;7.00;55.28
44138;BME280;29800;55.942;37.314;2023-05-10T01:08:05;100471.72;;;7.02;54.03
44138;BME280;29800;55.942;37.314;2023-05-10T01:10:32;100497.91;;;7.09;54.39
44138;BME280;29800;55.942;37.314;2023-05-10T01:12:59;100495.19;;;7.09;55.18
44138;BME280;29800;55.942;37.314;2023-05-10T01:15:26;100497.69;;;7.11;55.56
44138;BME280;29800;55.942;37.314;2023-05-10T01:17:53;100491.22;;;7.12;55.21
44138;BME280;29800;55.942;37.314;2023-05-10T01:20:20;100493.72;;;7.13;55.42
44138;BME280;29800;55.942;37.314;2023-05-10T01:23:10;100489.53;;;7.17;55.63
44138;BME280;29800;55.942;37.314;2023-05-10T01:34:09;100500.22;;;7.12;56.06
44138;BME280;29800;55.942;37.314;2023-05-10T01:36:52;100501.25;;;7.18;56.46
44138;BME280;29800;55.942;37.314;2023-05-10T01:39:29;100497.50;;;7.12;56.54
44138;BME280;29800;55.942;37.314;2023-05-10T01:42:10;100492.66;;;7.14;55.72
44138;BME280;29800;55.942;37.314;2023-05-10T01:44:48;100495.38;;;7.14;56.62
44138;BME280;29800;55.942;37.314;2023-05-10T01:47:43;100492.88;;;7.20;56.40
44138;BME280;29800;55.942;37.314;2023-05-10T01:50:22;100483.66;;;7.21;55.24
44138;BME280;29800;55.942;37.314;2023-05-10T01:52:53;100487.84;;;7.16;55.82
44138;BME280;29800;55.942;37.314;2023-05-10T01:55:24;100482.84;;;7.20;55.06
44138;BME280;29800;55.942;37.314;2023-05-10T01:57:58;100479.50;;;7.25;55.27
44138;BME280;29800;55.942;37.314;2023-05-10T02:00:27;100474.03;;;7.25;55.42
44138;BME280;29800;55.942;37.314;2023-05-10T02:02:55;100483.44;;;7.29;55.19
44138;BME280;29800;55.942;37.314;2023-05-10T02:05:22;100479.69;;;7.30;54.78
44138;BME280;29800;55.942;37.314;2023-05-10T02:07:50;100481.97;;;7.26;56.05
44138;BME280;29800;55.942;37.314;2023-05-10T02:10:17;100478.63;;;7.24;55.88
44138;BME280;29800;55.942;37.314;2023-05-10T02:12:48;100480.31;;;7.25;56.16
44138;BME280;29800;55.942;37.314;2023-05-10T02:15:20;100474.03;;;7.25;57.09
44138;BME280;29800;55.942;37.314;2023-05-10T02:17:47;100474.47;;;7.22;57.16
44138;BME280;29800;55.942;37.314;2023-05-10T02:20:16;100476.78;;;7.25;56.36
44138;BME280;29800;55.942;37.314;2023-05-10T02:22:44;100475.09;;;7.24;56.09
44138;BME280;29800;55.942;37.314;2023-05-10T02:25:11;100475.69;;;7.26;56.92
44138;BME280;29800;55.942;37.314;2023-05-10T02:27:41;100472.34;;;7.30;56.32
44138;BME280;29800;55.942;37.314;2023-05-10T02:30:10;100475.28;;;7.29;57.00
44138;BME280;29800;55.942;37.314;2023-05-10T02:32:36;100468.16;;;7.28;56.61
44138;BME280;29800;55.942;37.314;2023-05-10T02:35:05;100469.84;;;7.29;56.83
44138;BME280;29800;55.942;37.314;2023-05-10T02:37:33;100468.16;;;7.28;57.25
44138;BME280;29800;55.942;37.314;2023-05-10T02:40:01;100468.16;;;7.28;57.34
44138;BME280;29800;55.942;37.314;2023-05-10T02:42:31;100463.56;;;7.28;56.96
44138;BME280;29800;55.942;37.314;2023-05-10T02:45:05;100468.59;;;7.31;57.81
44138;BME280;29800;55.942;37.314;2023-05-10T02:47:34;100463.16;;;7.31;57.38
44138;BME280;29800;55.942;37.314;2023-05-10T02:50:00;100456.00;;;7.30;57.00
44138;BME280;29800;55.942;37.314;2023-05-10T02:52:47;100461.44;;;7.37;56.93
44138;BME280;29800;55.942;37.314;2023-05-10T02:55:16;100458.09;;;7.35;57.55
44138;BME280;29800;55.942;37.314;2023-05-10T02:57:52;100457.69;;;7.38;57.43
44138;BME280;29800;55.942;37.314;2023-05-10T03:00:20;100459.75;;;7.36;56.84
44138;BME280;29800;55.942;37.314;2023-05-10T03:02:47;100461.44;;;7.37;55.78
44138;BME280;29800;55.942;37.314;2023-05-10T03:05:13;100460.00;;;7.41;57.19
44138;BME280;29800;55.942;37.314;2023-05-10T03:07:40;100457.28;;;7.41;56.69
44138;BME280;29800;55.942;37.314;2023-05-10T03:10:06;100463.94;;;7.45;57.08
44138;BME280;29800;55.942;37.314;2023-05-10T03:15:19;100462.91;;;7.53;56.22
44138;BME280;29800;55.942;37.314;2023-05-10T03:18:06;100461.41;;;7.64;56.11
44138;BME280;29800;55.942;37.314;2023-05-10T03:20:41;100457.63;;;7.65;55.52
44138;BME280;29800;55.942;37.314;2023-05-10T03:23:22;100452.59;;;7.68;55.26
44138;BME280;29800;55.942;37.314;2023-05-10T03:25:52;100455.09;;;7.70;54.34
44138;BME280;29800;55.942;37.314;2023-05-10T03:28:20;100452.78;;;7.73;54.46
44138;BME280;29800;55.942;37.314;2023-05-10T03:30:47;100459.69;;;7.76;54.41
44138;BME280;29800;55.942;37.314;2023-05-10T03:33:13;100452.94;;;7.85;54.22
44138;BME280;29800;55.942;37.314;2023-05-10T03:35:44;100457.97;;;7.88;53.52
44138;BME280;29800;55.942;37.314;2023-05-10T03:38:12;100454.19;;;7.96;53.22
44138;BME280;29800;55.942;37.314;2023-05-10T03:40:39;100453.97;;;7.98;54.00
44138;BME280;29800;55.942;37.314;2023-05-10T03:43:07;100455.41;;;8.07;53.99
44138;BME280;29800;55.942;37.314;2023-05-10T03:45:33;100457.44;;;8.12;53.53
44138;BME280;29800;55.942;37.314;2023-05-10T03:47:59;100456.59;;;8.18;52.69
44138;BME280;29800;55.942;37.314;2023-05-10T03:50:26;100452.38;;;8.28;52.06
44138;BME280;29800;55.942;37.314;2023-05-10T03:52:53;100444.97;;;8.36;50.81
44138;BME280;29800;55.942;37.314;2023-05-10T03:55:19;100438.03;;;8.40;50.58
44138;BME280;29800;55.942;37.314;2023-05-10T03:57:45;100445.56;;;8.51;50.60
44138;BME280;29800;55.942;37.314;2023-05-10T04:00:12;100443.44;;;8.53;49.45
44138;BME280;29800;55.942;37.314;2023-05-10T04:02:42;100448.03;;;8.59;49.83
44138;BME280;29800;55.942;37.314;2023-05-10T04:05:12;100443.75;;;8.70;48.71
44138;BME280;29800;55.942;37.314;2023-05-10T04:07:38;100449.59;;;8.74;49.32
44138;BME280;29800;55.942;37.314;2023-05-10T04:10:05;100454.16;;;8.80;48.12
44138;BME280;29800;55.942;37.314;2023-05-10T04:12:32;100446.38;;;8.83;49.38
44138;BME280;29800;55.942;37.314;2023-05-10T04:14:58;100441.09;;;8.89;49.01
44138;BME280;29800;55.942;37.314;2023-05-10T04:17:25;100440.84;;;8.90;47.65
44138;BME280;29800;55.942;37.314;2023-05-10T04:19:51;100439.53;;;8.99;47.99
44138;BME280;29800;55.942;37.314;2023-05-10T04:22:20;100432.59;;;9.04;48.30
44138;BME280;29800;55.942;37.314;2023-05-10T04:24:46;100430.84;;;9.09;48.80
44138;BME280;29800;55.942;37.314;2023-05-10T04:27:12;100431.59;;;9.16;48.58
44138;BME280;29800;55.942;37.314;2023-05-10T04:29:39;100426.72;;;9.25;46.84
44138;BME280;29800;55.942;37.314;2023-05-10T04:32:05;100430.19;;;9.32;46.37
44138;BME280;29800;55.942;37.314;2023-05-10T04:34:31;100436.47;;;9.40;47.37
44138;BME280;29800;55.942;37.314;2023-05-10T04:37:00;100424.16;;;9.49;47.13
44138;BME280;29800;55.942;37.314;2023-05-10T04:39:26;100422.06;;;9.69;46.86
44138;BME280;29800;55.942;37.314;2023-05-10T04:41:53;100426.59;;;9.94;45.81
44138;BME280;29800;55.942;37.314;2023-05-10T04:44:19;100420.44;;;10.29;46.39
44138;BME280;29800;55.942;37.314;2023-05-10T04:46:45;100420.63;;;10.64;46.55
44138;BME280;29800;55.942;37.314;2023-05-10T04:49:12;100413.13;;;10.72;45.73
44138;BME280;29800;55.942;37.314;2023-05-10T04:51:38;100410.53;;;10.89;44.60
44138;BME280;29800;55.942;37.314;2023-05-10T04:54:04;100411.38;;;11.01;44.70
44138;BME280;29800;55.942;37.314;2023-05-10T04:56:30;100407.00;;;11.12;44.93
44138;BME280;29800;55.942;37.314;2023-05-10T04:58:56;100405.22;;;11.17;44.40
44138;BME280;29800;55.942;37.314;2023-05-10T05:01:23;100410.31;;;11.26;44.48
44138;BME280;29800;55.942;37.314;2023-05-10T05:03:49;100404.13;;;11.42;44.29
44138;BME280;29800;55.942;37.314;2023-05-10T05:06:16;100405.63;;;11.73;43.32
44138;BME280;29800;55.942;37.314;2023-05-10T05:08:42;100406.78;;;11.89;43.54
44138;BME280;29800;55.942;37.314;2023-05-10T05:11:09;100407.72;;;12.07;41.05
44138;BME280;29800;55.942;37.314;2023-05-10T05:13:35;100404.34;;;12.17;42.58
44138;BME280;29800;55.942;37.314;2023-05-10T05:16:02;100401.75;;;12.39;42.24
44138;BME280;29800;55.942;37.314;2023-05-10T05:18:29;100411.25;;;12.48;41.52
44138;BME280;29800;55.942;37.314;2023-05-10T05:20:55;100399.88;;;12.56;42.06
44138;BME280;29800;55.942;37.314;2023-05-10T05:23:21;100399.72;;;12.80;42.38
44138;BME280;29800;55.942;37.314;2023-05-10T05:25:53;100396.56;;;12.88;40.90
44138;BME280;29800;55.942;37.314;2023-05-10T05:28:20;100390.75;;;13.18;40.22
44138;BME280;29800;55.942;37.314;2023-05-10T05:30:46;100383.00;;;13.32;37.71
44138;BME280;29800;55.942;37.314;2023-05-10T05:33:14;100384.94;;;13.54;37.23
44138;BME280;29800;55.942;37.314;2023-05-10T05:35:41;100385.22;;;13.74;38.21
44138;BME280;29800;55.942;37.314;2023-05-10T05:38:10;100389.25;;;13.89;36.25
44138;BME280;29800;55.942;37.314;2023-05-10T05:40:37;100377.19;;;13.95;36.14
44138;BME280;29800;55.942;37.314;2023-05-10T05:43:03;100378.41;;;14.04;35.04
44138;BME280;29800;55.942;37.314;2023-05-10T05:45:29;100382.31;;;14.08;34.07
44138;BME280;29800;55.942;37.314;2023-05-10T05:47:55;100376.28;;;14.11;33.26
44138;BME280;29800;55.942;37.314;2023-05-10T05:50:22;100377.69;;;14.14;33.81
44138;BME280;29800;55.942;37.314;2023-05-10T05:52:48;100384.94;;;14.20;34.33
44138;BME280;29800;55.942;37.314;2023-05-10T05:55:14;100373.19;;;14.30;34.74
44138;BME280;29800;55.942;37.314;2023-05-10T05:57:41;100372.72;;;14.38;33.84
44138;BME280;29800;55.942;37.314;2023-05-10T06:00:07;100373.69;;;14.54;34.36
44138;BME280;29800;55.942;37.314;2023-05-10T06:02:40;100366.59;;;14.58;33.02
44138;BME280;29800;55.942;37.314;2023-05-10T06:05:07;100373.59;;;14.66;33.27
44138;BME280;29800;55.942;37.314;2023-05-10T06:07:33;100370.34;;;14.74;32.63
44138;BME280;29800;55.942;37.314;2023-05-10T06:10:00;100371.75;;;14.82;32.16
44138;BME280;29800;55.942;37.314;2023-05-10T06:12:26;100372.41;;;14.89;31.68
44138;BME280;29800;55.942;37.314;2023-05-10T06:14:52;100367.53;;;15.06;32.93
44138;BME280;29800;55.942;37.314;2023-05-10T06:17:18;100364.91;;;15.22;32.65
44138;BME280;29800;55.942;37.314;2023-05-10T06:19:45;100366.31;;;15.30;31.58
44138;BME280;29800;55.942;37.314;2023-05-10T06:22:11;100364.97;;;15.32;31.05
44138;BME280;29800;55.942;37.314;2023-05-10T06:24:37;100360.25;;;15.33;31.44
44138;BME280;29800;55.942;37.314;2023-05-10T06:27:03;100364.97;;;15.32;30.80
44138;BME280;29800;55.942;37.314;2023-05-10T06:29:30;100363.06;;;15.38;31.94
44138;BME280;29800;55.942;37.314;2023-05-10T06:31:56;100364.72;;;15.39;31.24
44138;BME280;29800;55.942;37.314;2023-05-10T06:34:22;100373.56;;;15.46;31.10
44138;BME280;29800;55.942;37.314;2023-05-10T06:36:49;100366.97;;;15.47;30.50
44138;BME280;29800;55.942;37.314;2023-05-10T06:39:15;100365.34;;;15.51;29.96
44138;BME280;29800;55.942;37.314;2023-05-10T06:41:41;100362.34;;;15.58;30.00
44138;BME280;29800;55.942;37.314;2023-05-10T06:44:08;100356.00;;;15.62;31.99
44138;BME280;29800;55.942;37.314;2023-05-10T06:46:34;100362.09;;;15.65;30.10
44138;BME280;29800;55.942;37.314;2023-05-10T06:49:01;100358.22;;;15.66;29.78
44138;BME280;29800;55.942;37.314;2023-05-10T06:51:27;100356.91;;;15.73;30.41
44138;BME280;29800;55.942;37.314;2023-05-10T06:53:53;100351.66;;;15.72;30.26
44138;BME280;29800;55.942;37.314;2023-05-10T06:56:20;100350.81;;;15.71;30.03
44138;BME280;29800;55.942;37.314;2023-05-10T06:58:48;100351.97;;;15.80;29.78
44138;BME280;29800;55.942;37.314;2023-05-10T07:01:14;100352.84;;;15.91;30.17
44138;BME280;29800;55.942;37.314;2023-05-10T07:03:40;100353.16;;;16.00;29.35
44138;BME280;29800;55.942;37.314;2023-05-10T07:06:07;100350.41;;;16.05;29.44
44138;BME280;29800;55.942;37.314;2023-05-10T07:08:34;100351.25;;;16.01;28.69
44138;BME280;29800;55.942;37.314;2023-05-10T07:11:04;100347.63;;;16.00;29.51
44138;BME280;29800;55.942;37.314;2023-05-10T07:13:31;100340.19;;;15.95;29.03
44138;BME280;29800;55.942;37.314;2023-05-10T07:15:58;100347.88;;;15.88;28.57
44138;BME280;29800;55.942;37.314;2023-05-10T07:18:25;100348.41;;;15.80;27.98
44138;BME280;29800;55.942;37.314;2023-05-10T07:20:52;100343.91;;;15.74;29.11
44138;BME280;29800;55.942;37.314;2023-05-10T07:23:18;100341.13;;;15.69;30.74
44138;BME280;29800;55.942;37.314;2023-05-10T07:25:48;100336.69;;;15.62;29.44
44138;BME280;29800;55.942;37.314;2023-05-10T07:28:15;100335.63;;;15.69;29.50
44138;BME280;29800;55.942;37.314;2023-05-10T07:30:44;100337.63;;;15.78;29.95
44138;BME280;29800;55.942;37.314;2023-05-10T07:33:12;100338.50;;;15.94;30.62
44138;BME280;29800;55.942;37.314;2023-05-10T07:35:39;100340.78;;;16.23;28.88
44138;BME280;29800;55.942;37.314;2023-05-10T07:38:05;100328.69;;;16.55;29.74
44138;BME280;29800;55.942;37.314;2023-05-10T07:40:32;100328.09;;;16.84;27.41
44138;BME280;29800;55.942;37.314;2023-05-10T07:42:58;100321.22;;;17.12;26.29
44138;BME280;29800;55.942;37.314;2023-05-10T07:45:27;100316.44;;;17.28;25.71
44138;BME280;29800;55.942;37.314;2023-05-10T07:47:54;100314.72;;;17.48;26.24
44138;BME280;29800;55.942;37.314;2023-05-10T07:50:20;100311.88;;;17.73;24.09
44138;BME280;29800;55.942;37.314;2023-05-10T07:52:47;100312.56;;;18.05;25.53
44138;BME280;29800;55.942;37.314;2023-05-10T07:55:14;100308.81;;;18.25;24.20
44138;BME280;29800;55.942;37.314;2023-05-10T07:57:42;100307.56;;;18.46;23.75
44138;BME280;29800;55.942;37.314;2023-05-10T08:00:08;100302.28;;;18.50;23.12
44138;BME280;29800;55.942;37.314;2023-05-10T08:02:41;100300.78;;;18.63;22.77
44138;BME280;29800;55.942;37.314;2023-05-10T08:05:07;100303.41;;;18.83;23.31
44138;BME280;29800;55.942;37.314;2023-05-10T08:07:34;100300.16;;;19.05;24.23
44138;BME280;29800;55.942;37.314;2023-05-10T08:10:00;100298.44;;;19.34;22.92
44138;BME280;29800;55.942;37.314;2023-05-10T08:12:27;100299.38;;;19.48;21.46
44138;BME280;29800;55.942;37.314;2023-05-10T08:14:53;100290.09;;;19.58;21.70
44138;BME280;29800;55.942;37.314;2023-05-10T08:17:19;100288.22;;;19.53;22.13
44138;BME280;29800;55.942;37.314;2023-05-10T08:19:46;100286.97;;;19.40;22.21
44138;BME280;29800;55.942;37.314;2023-05-10T08:22:12;100277.53;;;19.17;21.64
44138;BME280;29800;55.942;37.314;2023-05-10T08:24:39;100281.59;;;19.01;21.79
44138;BME280;29800;55.942;37.314;2023-05-10T08:27:05;100277.28;;;18.89;21.85
44138;BME280;29800;55.942;37.314;2023-05-10T08:29:32;100275.38;;;18.85;22.71
44138;BME280;29800;55.942;37.314;2023-05-10T08:31:58;100269.81;;;18.85;22.59
44138;BME280;29800;55.942;37.314;2023-05-10T08:34:24;100260.09;;;18.82;22.85
44138;BME280;29800;55.942;37.314;2023-05-10T08:36:50;100270.81;;;18.65;23.06
44138;BME280;29800;55.942;37.314;2023-05-10T08:39:17;100268.09;;;18.60;23.25
44138;BME280;29800;55.942;37.314;2023-05-10T08:41:44;100266.78;;;18.52;22.79
44138;BME280;29800;55.942;37.314;2023-05-10T08:44:11;100261.00;;;18.48;23.85
44138;BME280;29800;55.942;37.314;2023-05-10T08:46:41;100264.88;;;18.47;23.37
44138;BME280;29800;55.942;37.314;2023-05-10T08:49:16;100264.16;;;18.36;22.95
44138;BME280;29800;55.942;37.314;2023-05-10T08:51:54;100261.16;;;18.28;22.65
44138;BME280;29800;55.942;37.314;2023-05-10T08:54:22;100268.44;;;18.13;23.17
44138;BME280;29800;55.942;37.314;2023-05-10T08:56:48;100255.19;;;18.10;23.25
44138;BME280;29800;55.942;37.314;2023-05-10T08:59:15;100259.91;;;18.10;24.09
44138;BME280;29800;55.942;37.314;2023-05-10T09:01:43;100256.25;;;18.14;24.67
44138;BME280;29800;55.942;37.314;2023-05-10T09:04:12;100251.28;;;18.11;23.04
44138;BME280;29800;55.942;37.314;2023-05-10T09:06:38;100254.03;;;18.16;23.08
44138;BME280;29800;55.942;37.314;2023-05-10T09:09:04;100253.75;;;18.18;24.89
44138;BME280;29800;55.942;37.314;2023-05-10T09:11:31;100251.28;;;18.11;23.37
44138;BME280;29800;55.942;37.314;2023-05-10T09:13:58;100240.78;;;18.08;22.88
44138;BME280;29800;55.942;37.314;2023-05-10T09:16:24;100239.16;;;18.07;23.64
44138;BME280;29800;55.942;37.314;2023-05-10T09:18:50;100236.09;;;18.09;22.86
44138;BME280;29800;55.942;37.314;2023-05-10T09:21:17;100239.66;;;18.14;22.71
44138;BME280;29800;55.942;37.314;2023-05-10T09:23:44;100242.38;;;18.19;22.16
44138;BME280;29800;55.942;37.314;2023-05-10T09:26:12;100227.94;;;18.23;24.65
44138;BME280;29800;55.942;37.314;2023-05-10T09:28:56;100234.53;;;18.32;23.24
44138;BME280;29800;55.942;37.314;2023-05-10T09:31:23;100232.38;;;18.24;23.11
44138;BME280;29800;55.942;37.314;2023-05-10T09:33:51;100241.47;;;18.29;23.12
44138;BME280;29800;55.942;37.314;2023-05-10T09:36:18;100234.56;;;18.27;22.60
44138;BME280;29800;55.942;37.314;2023-05-10T09:38:49;100227.91;;;18.28;22.03
44138;BME280;29800;55.942;37.314;2023-05-10T09:41:19;100230.13;;;18.26;22.99
44138;BME280;29800;55.942;37.314;2023-05-10T09:43:46;100232.44;;;18.18;23.78
44138;BME280;29800;55.942;37.314;2023-05-10T09:46:13;100227.16;;;18.17;23.01
44138;BME280;29800;55.942;37.314;2023-05-10T09:48:45;100221.88;;;18.21;23.25
44138;BME280;29800;55.942;37.314;2023-05-10T09:51:22;100218.53;;;18.24;22.73
44138;BME280;29800;55.942;37.314;2023-05-10T09:53:49;100213.03;;;18.18;22.06
44138;BME280;29800;55.942;37.314;2023-05-10T09:56:35;100213.81;;;18.24;21.89
44138;BME280;29800;55.942;37.314;2023-05-10T09:59:03;100210.22;;;18.24;22.86
44138;BME280;29800;55.942;37.314;2023-05-10T10:01:30;100215.75;;;18.24;22.46
44138;BME280;29800;55.942;37.314;2023-05-10T10:03:57;100219.44;;;18.14;21.94
44138;BME280;29800;55.942;37.314;2023-05-10T10:06:24;100204.16;;;18.16;22.15
44138;BME280;29800;55.942;37.314;2023-05-10T10:08:51;100210.28;;;18.13;22.98
44138;BME280;29800;55.942;37.314;2023-05-10T10:11:18;100208.06;;;18.15;23.02
44138;BME280;29800;55.942;37.314;2023-05-10T10:13:45;100200.88;;;18.14;24.02
44138;BME280;29800;55.942;37.314;2023-05-10T10:16:12;100196.69;;;18.17;22.26
44138;BME280;29800;55.942;37.314;2023-05-10T10:18:38;100199.72;;;18.21;22.54
44138;BME280;29800;55.942;37.314;2023-05-10T10:21:08;100191.78;;;18.38;25.05
44138;BME280;29800;55.942;37.314;2023-05-10T10:23:35;100189.41;;;18.55;23.21
44138;BME280;29800;55.942;37.314;2023-05-10T10:26:04;100194.25;;;18.69;22.60
44138;BME280;29800;55.942;37.314;2023-05-10T10:34:08;100188.19;;;18.96;22.74
44138;BME280;29800;55.942;37.314;2023-05-10T10:36:42;100195.72;;;18.90;22.20
44138;BME280;29800;55.942;37.314;2023-05-10T10:39:10;100184.72;;;18.80;22.01
44138;BME280;29800;55.942;37.314;2023-05-10T10:44:34;100184.47;;;18.77;23.58
44138;BME280;29800;55.942;37.314;2023-05-10T10:49:52;100179.19;;;19.04;25.21
44138;BME280;29800;55.942;37.314;2023-05-10T10:52:34;100185.91;;;19.22;23.59
44138;BME280;29800;55.942;37.314;2023-05-10T10:55:12;100183.88;;;19.28;23.69
44138;BME280;29800;55.942;37.314;2023-05-10T11:00:25;100170.28;;;19.07;23.50
44138;BME280;29800;55.942;37.314;2023-05-10T11:03:06;100172.84;;;19.04;23.93
44138;BME280;29800;55.942;37.314;2023-05-10T11:08:17;100167.78;;;18.82;23.52
44138;BME280;29800;55.942;37.314;2023-05-10T11:10:51;100176.16;;;18.77;24.55
44138;BME280;29800;55.942;37.314;2023-05-10T11:13:28;100167.38;;;18.69;24.50
44138;BME280;29800;55.942;37.314;2023-05-10T11:15:55;100162.50;;;18.56;26.95
44138;BME280;29800;55.942;37.314;2023-05-10T11:18:30;100164.22;;;18.52;25.11
44138;BME280;29800;55.942;37.314;2023-05-10T11:20:57;100166.03;;;18.37;27.38
44138;BME280;29800;55.942;37.314;2023-05-10T11:23:33;100158.00;;;18.36;25.16
44138;BME280;29800;55.942;37.314;2023-05-10T11:26:13;100150.84;;;18.30;24.53
44138;BME280;29800;55.942;37.314;2023-05-10T11:28:44;100155.53;;;18.34;28.49
44138;BME280;29800;55.942;37.314;2023-05-10T11:31:15;100151.41;;;18.32;24.83
44138;BME280;29800;55.942;37.314;2023-05-10T11:33:46;100149.97;;;18.34;25.79
44138;BME280;29800;55.942;37.314;2023-05-10T11:36:18;100154.06;;;18.42;25.60
44138;BME280;29800;55.942;37.314;2023-05-10T11:38:46;100146.34;;;18.39;23.24
44138;BME280;29800;55.942;37.314;2023-05-10T11:41:12;100146.56;;;18.43;25.09
44138;BME280;29800;55.942;37.314;2023-05-10T11:43:40;100148.00;;;18.40;25.99
44138;BME280;29800;55.942;37.314;2023-05-10T11:46:10;100139.13;;;18.38;25.09
44138;BME280;29800;55.942;37.314;2023-05-10T11:48:41;100135.84;;;18.36;24.16
44138;BME280;29800;55.942;37.314;2023-05-10T11:51:08;100139.47;;;18.31;24.75
44138;BME280;29800;55.942;37.314;2023-05-10T11:53:34;100140.63;;;18.30;24.05
44138;BME280;29800;55.942;37.314;2023-05-10T11:56:08;100132.38;;;18.25;24.88
44138;BME280;29800;55.942;37.314;2023-05-10T11:58:36;100131.56;;;18.19;24.23
44138;BME280;29800;55.942;37.314;2023-05-10T12:01:04;100128.91;;;18.09;23.87
44138;BME280;29800;55.942;37.314;2023-05-10T12:03:31;100127.88;;;18.00;25.92
44138;BME280;29800;55.942;37.314;2023-05-10T12:05:58;100132.34;;;17.96;27.17
44138;BME280;29800;55.942;37.314;2023-05-10T12:08:26;100132.41;;;17.86;27.00
44138;BME280;29800;55.942;37.314;2023-05-10T12:11:03;100123.53;;;17.83;28.23
44138;BME280;29800;55.942;37.314;2023-05-10T12:13:29;100125.78;;;17.81;31.41
44138;BME280;29800;55.942;37.314;2023-05-10T12:15:59;100123.53;;;17.83;26.32
44138;BME280;29800;55.942;37.314;2023-05-10T12:18:26;100127.44;;;17.82;26.14
44138;BME280;29800;55.942;37.314;2023-05-10T12:20:53;100115.28;;;17.78;25.15
44138;BME280;29800;55.942;37.314;2023-05-10T12:23:20;100118.34;;;17.77;24.67
44138;BME280;29800;55.942;37.314;2023-05-10T12:25:46;100118.09;;;17.73;25.07
44138;BME280;29800;55.942;37.314;2023-05-10T12:28:13;100113.69;;;17.67;25.48
44138;BME280;29800;55.942;37.314;2023-05-10T12:30:39;100106.25;;;17.62;25.20
44138;BME280;29800;55.942;37.314;2023-05-10T12:33:11;100105.69;;;17.66;25.12
44138;BME280;29800;55.942;37.314;2023-05-10T12:35:49;100104.81;;;17.70;25.23
44138;BME280;29800;55.942;37.314;2023-05-10T12:38:38;100105.03;;;17.79;24.84
44138;BME280;29800;55.942;37.314;2023-05-10T12:41:07;100107.25;;;17.77;25.34
44138;BME280;29800;55.942;37.314;2023-05-10T12:43:35;100101.97;;;17.80;24.17
44138;BME280;29800;55.942;37.314;2023-05-10T12:46:16;100100.81;;;17.87;24.89
44138;BME280;29800;55.942;37.314;2023-05-10T12:48:44;100100.00;;;17.86;24.21
44138;BME280;29800;55.942;37.314;2023-05-10T12:51:12;100098.59;;;17.89;25.12
44138;BME280;29800;55.942;37.314;2023-05-10T12:53:41;100094.72;;;17.90;25.83
44138;BME280;29800;55.942;37.314;2023-05-10T12:56:07;100096.97;;;17.88;27.54
44138;BME280;29800;55.942;37.314;2023-05-10T12:58:34;100095.28;;;17.87;26.00
44138;BME280;29800;55.942;37.314;2023-05-10T13:01:01;100104.13;;;17.89;26.34
44138;BME280;29800;55.942;37.314;2023-05-10T13:03:27;100093.06;;;17.89;27.58
44138;BME280;29800;55.942;37.314;2023-05-10T13:05:53;100101.94;;;17.91;25.87
44138;BME280;29800;55.942;37.314;2023-05-10T13:08:20;100091.03;;;17.99;26.83
44138;BME280;29800;55.942;37.314;2023-05-10T13:10:46;100096.28;;;18.01;25.79
44138;BME280;29800;55.942;37.314;2023-05-10T13:13:13;100097.69;;;17.98;26.31
44138;BME280;29800;55.942;37.314;2023-05-10T13:15:39;100088.63;;;17.93;25.48
44138;BME280;29800;55.942;37.314;2023-05-10T13:18:06;100090.59;;;17.87;26.14